Time;durP1;ratioP1;P1;durP2;ratioP2;P2;SDS_P1;SDS_P2;PMS_P1;PMS_P2;Temp;Humidity;BMP_temperature;BMP_pressure;BME280_temperature;BME280_humidity;BME280_pressure;Samples;Min_cycle;Max_cycle;Signal;HPM_P1;HPM_P2
2023/10/10 00:02:20;;;;;;;0.63;0.63;;;15.20;99.90;;;;;;5078304;28;20020;-81
2023/10/10 00:04:49;;;;;;;0.10;0.10;;;15.10;99.90;;;;;;5080453;28;20111;-76
2023/10/10 00:07:16;;;;;;;0.10;0.10;;;15.10;99.90;;;;;;5081608;28;20544;-75
2023/10/10 00:09:45;;;;;;;0.43;0.43;;;15.30;99.90;;;;;;5081749;28;20027;-76
2023/10/10 00:12:14;;;;;;;0.30;0.30;;;15.10;99.90;;;;;;5062623;28;20414;-76
2023/10/10 00:14:40;;;;;;;1.65;1.55;;;15.00;99.90;;;;;;5059760;28;20100;-77
2023/10/10 00:17:08;;;;;;;0.20;0.20;;;15.00;99.90;;;;;;5078330;28;20032;-76
2023/10/10 00:19:43;;;;;;;0.10;0.10;;;14.90;99.90;;;;;;5077971;28;20513;-83
2023/10/10 00:22:11;;;;;;;0.10;0.10;;;14.90;99.90;;;;;;5060154;28;20034;-76
2023/10/10 00:24:36;;;;;;;2.90;2.25;;;14.80;99.90;;;;;;5077621;28;20119;-80
2023/10/10 00:27:12;;;;;;;0.10;0.10;;;14.90;99.90;;;;;;5077714;28;20310;-75
2023/10/10 00:29:45;;;;;;;0.60;0.60;;;14.80;99.90;;;;;;5077999;28;20012;-77
2023/10/10 00:32:17;;;;;;;0.10;0.10;;;14.90;99.90;;;;;;5077777;28;20040;-78
2023/10/10 00:34:47;;;;;;;0.10;0.10;;;14.80;99.90;;;;;;5060150;28;20028;-84
2023/10/10 00:37:21;;;;;;;0.13;0.13;;;14.80;99.90;;;;;;5064087;28;20055;-83
2023/10/10 00:39:54;;;;;;;9.20;6.95;;;14.80;99.90;;;;;;5082070;28;20235;-76
2023/10/10 00:42:38;;;;;;;0.10;0.10;;;14.80;99.90;;;;;;5082536;28;20216;-82
2023/10/10 00:45:09;;;;;;;1.52;1.45;;;14.70;99.90;;;;;;5081990;28;20028;-79
2023/10/10 00:47:40;;;;;;;2.55;2.42;;;14.80;99.90;;;;;;5063752;28;20028;-83
2023/10/10 00:50:08;;;;;;;0.10;0.10;;;14.70;99.90;;;;;;5081928;28;20028;-76
2023/10/10 00:52:38;;;;;;;0.55;0.55;;;14.80;99.90;;;;;;5082452;28;20073;-88
2023/10/10 00:55:05;;;;;;;3.78;3.53;;;14.80;99.90;;;;;;5082276;28;20016;-78
2023/10/10 00:57:35;;;;;;;3.80;3.60;;;14.70;99.90;;;;;;5081895;28;20028;-75
2023/10/10 01:00:15;;;;;;;0.52;0.52;;;14.70;99.90;;;;;;5081671;28;20016;-78
2023/10/10 01:02:42;;;;;;;0.60;0.60;;;14.70;99.90;;;;;;5081586;28;20039;-74
2023/10/10 01:05:14;;;;;;;0.95;0.95;;;14.60;99.90;;;;;;5081578;28;20546;-76
2023/10/10 01:07:47;;;;;;;0.10;0.10;;;14.60;99.90;;;;;;5081647;28;20055;-76
2023/10/10 01:10:16;;;;;;;0.10;0.10;;;14.60;99.90;;;;;;5081754;28;20020;-74
2023/10/10 01:12:46;;;;;;;0.10;0.10;;;14.50;99.90;;;;;;5081338;28;20085;-81
2023/10/10 01:18:03;;;;;;;6.78;6.22;;;14.50;99.90;;;;;;5037492;28;20574;-79
2023/10/10 01:20:45;;;;;;;11.77;10.77;;;14.40;99.90;;;;;;5038072;28;20112;-76
2023/10/10 01:23:12;;;;;;;9.57;8.98;;;14.30;99.90;;;;;;5037571;28;20531;-75
2023/10/10 01:28:13;;;;;;;0.30;0.30;;;14.20;99.90;;;;;;5038032;28;20047;-78
2023/10/10 01:30:57;;;;;;;0.15;0.15;;;14.20;99.90;;;;;;5037496;28;20040;-77
2023/10/10 01:33:29;;;;;;;2.85;2.65;;;14.20;99.90;;;;;;5036786;28;20518;-80
2023/10/10 01:35:58;;;;;;;1.00;1.00;;;14.20;99.90;;;;;;5036634;28;20563;-76
2023/10/10 01:38:34;;;;;;;4.63;4.28;;;14.20;99.90;;;;;;5036443;28;20093;-76
2023/10/10 01:41:05;;;;;;;0.20;0.20;;;14.20;99.90;;;;;;5036280;28;20103;-77
2023/10/10 01:43:34;;;;;;;0.10;0.10;;;;;;;;;;5036486;28;20021;-76
2023/10/10 01:46:08;;;;;;;0.10;0.10;;;14.20;99.90;;;;;;5020536;28;20127;-81
2023/10/10 01:48:43;;;;;;;0.40;0.40;;;14.20;99.90;;;;;;5038957;28;20308;-78
2023/10/10 01:51:10;;;;;;;0.73;0.73;;;14.30;99.90;;;;;;5037557;28;20239;-76
2023/10/10 01:53:40;;;;;;;0.10;0.10;;;14.30;99.90;;;;;;5037659;28;20017;-76
2023/10/10 01:56:11;;;;;;;0.20;0.20;;;14.30;99.90;;;;;;5079437;28;20059;-79
2023/10/10 01:58:37;;;;;;;0.32;0.32;;;14.30;99.90;;;;;;5082666;28;20192;-76
2023/10/10 02:01:14;;;;;;;2.28;2.13;;;14.30;99.90;;;;;;5082591;28;20472;-79
2023/10/10 02:03:40;;;;;;;0.55;0.55;;;14.30;99.90;;;;;;5080582;28;20028;-82
2023/10/10 02:06:13;;;;;;;0.10;0.10;;;14.30;99.90;;;;;;5080166;28;20012;-76
2023/10/10 02:08:40;;;;;;;0.17;0.17;;;14.30;99.90;;;;;;5063219;28;20242;-76
2023/10/10 02:11:08;;;;;;;0.10;0.10;;;14.20;99.90;;;;;;5079436;28;20331;-76
2023/10/10 02:13:39;;;;;;;0.20;0.20;;;14.30;99.90;;;;;;5061121;28;20116;-77
2023/10/10 02:16:06;;;;;;;1.95;1.85;;;14.20;99.90;;;;;;5079126;28;20031;-77
2023/10/10 02:18:44;;;;;;;0.10;0.10;;;14.20;99.90;;;;;;5078926;28;20078;-75
2023/10/10 02:21:17;;;;;;;0.10;0.10;;;14.10;99.90;;;;;;5079087;28;20028;-75
2023/10/10 02:23:46;;;;;;;0.10;0.10;;;14.10;99.90;;;;;;5079137;28;20020;-75
2023/10/10 02:26:35;;;;;;;0.10;0.10;;;14.00;99.90;;;;;;5060236;28;20513;-76
2023/10/10 02:29:34;;;;;;;0.10;0.10;;;14.00;99.90;;;;;;5079175;28;20510;-80
2023/10/10 02:32:13;;;;;;;0.10;0.10;;;14.00;99.90;;;;;;5026222;28;1546295;-76
2023/10/10 02:34:43;;;;;;;0.10;0.10;;;13.90;99.90;;;;;;5061529;28;20115;-79
2023/10/10 02:40:12;;;;;;;0.10;0.10;;;12.80;99.90;;;;;;5079857;28;20770;-81
2023/10/10 02:42:33;;;;;;;0.10;0.10;;;13.90;99.90;;;;;;5079073;28;20572;-80
2023/10/10 02:44:59;;;;;;;0.10;0.10;;;13.80;99.90;;;;;;5079871;28;20266;-86
2023/10/10 02:47:30;;;;;;;0.10;0.10;;;13.80;99.90;;;;;;5080190;28;20034;-80
2023/10/10 02:50:09;;;;;;;2.15;2.05;;;13.80;99.90;;;;;;5079925;28;20096;-77
2023/10/10 02:52:39;;;;;;;1.20;1.17;;;13.70;99.90;;;;;;5079783;28;20097;-77
2023/10/10 02:55:13;;;;;;;3.10;2.95;;;13.70;99.90;;;;;;5061864;28;20491;-82
2023/10/10 02:57:41;;;;;;;0.20;0.20;;;13.70;99.90;;;;;;5079039;28;20302;-77
2023/10/10 03:00:28;;;;;;;0.30;0.30;;;13.70;99.90;;;;;;5079509;28;20140;-85
2023/10/10 03:02:58;;;;;;;2.90;2.75;;;13.60;99.90;;;;;;5080157;28;20571;-76
2023/10/10 03:08:18;;;;;;;1.05;1.00;;;14.70;99.90;;;;;;5082641;28;20035;-79
2023/10/10 03:10:54;;;;;;;1.55;1.45;;;13.80;99.90;;;;;;5083204;28;20016;-79
2023/10/10 03:21:58;;;;;;;0.10;0.10;;;13.80;99.90;;;;;;4978544;28;20607;-77
2023/10/10 03:27:01;;;;;;;0.10;0.10;;;13.40;99.90;;;;;;4977943;28;20039;-84
2023/10/10 03:29:47;;;;;;;44.20;16.75;;;13.80;99.90;;;;;;4977500;28;20018;-82
2023/10/10 03:32:33;;;;;;;0.10;0.10;;;13.80;99.90;;;;;;4976721;28;20074;-80
2023/10/10 03:35:20;;;;;;;0.10;0.10;;;13.70;99.90;;;;;;4976434;28;20026;-79
2023/10/10 03:37:54;;;;;;;0.10;0.10;;;13.70;99.90;;;;;;4976259;28;20089;-79
2023/10/10 03:41:04;;;;;;;0.10;0.10;;;13.70;99.90;;;;;;4976547;28;20053;-77
2023/10/10 05:25:12;;;;;;;0.10;0.10;;;13.90;99.90;;;;;;4998345;28;20053;-77
2023/10/10 05:27:41;;;;;;;0.40;0.40;;;13.50;99.90;;;;;;4998172;28;20026;-77
2023/10/10 05:30:23;;;;;;;0.10;0.10;;;13.90;99.90;;;;;;4998244;28;20041;-77
2023/10/10 05:33:00;;;;;;;0.10;0.10;;;14.00;99.90;;;;;;4998357;28;20185;-77
2023/10/10 05:35:49;;;;;;;0.10;0.10;;;13.70;99.90;;;;;;4998406;28;20259;-83
2023/10/10 05:38:16;;;;;;;0.30;0.30;;;14.10;99.90;;;;;;5071068;28;20104;-76
2023/10/10 05:40:43;;;;;;;0.13;0.13;;;14.20;99.90;;;;;;5062212;28;20028;-78
2023/10/10 05:43:15;;;;;;;1.88;1.77;;;14.20;99.90;;;;;;5080920;28;20029;-78
2023/10/10 05:45:44;;;;;;;0.43;0.43;;;14.30;99.90;;;;;;5080290;28;20032;-76
2023/10/10 05:48:11;;;;;;;0.20;0.20;;;14.30;99.90;;;;;;5080610;28;20024;-79
2023/10/10 05:50:40;;;;;;;0.10;0.10;;;14.30;99.90;;;;;;5080385;28;20407;-76
2023/10/10 05:53:06;;;;;;;31.10;10.85;;;14.40;99.90;;;;;;5063029;28;20034;-79
2023/10/10 05:55:38;;;;;;;0.10;0.10;;;14.40;99.90;;;;;;5084042;28;20035;-79
2023/10/10 05:58:05;;;;;;;0.10;0.10;;;14.40;99.90;;;;;;5084009;28;20016;-79
2023/10/10 06:00:39;;;;;;;0.45;0.43;;;14.40;99.90;;;;;;5083706;28;20020;-77
2023/10/10 06:03:05;;;;;;;0.10;0.10;;;14.40;99.90;;;;;;5081851;28;20086;-76
2023/10/10 06:05:34;;;;;;;0.10;0.10;;;14.40;99.90;;;;;;5081194;28;20410;-77
2023/10/10 06:08:01;;;;;;;0.10;0.10;;;14.80;99.90;;;;;;5081069;28;20422;-82
2023/10/10 06:10:31;;;;;;;8.77;8.45;;;14.40;99.90;;;;;;5080628;28;20020;-77
2023/10/10 06:12:58;;;;;;;0.10;0.10;;;14.40;99.90;;;;;;5080075;28;20212;-80
2023/10/10 06:15:24;;;;;;;0.10;0.10;;;16.70;99.90;;;;;;5079996;28;20038;-76
2023/10/10 06:17:57;;;;;;;0.10;0.10;;;15.30;99.90;;;;;;5079530;28;20036;-76
2023/10/10 06:20:24;;;;;;;1.15;1.15;;;14.50;99.90;;;;;;5079696;28;20373;-79
2023/10/10 06:22:54;;;;;;;6.43;5.97;;;14.50;99.90;;;;;;5079721;28;20699;-80
2023/10/10 06:25:21;;;;;;;10.48;9.98;;;14.50;99.90;;;;;;5061688;28;20119;-84
2023/10/10 06:27:54;;;;;;;1.85;1.75;;;14.60;99.90;;;;;;5061918;28;20028;-82
2023/10/10 06:30:24;;;;;;;15.88;4.70;;;14.70;99.90;;;;;;5079633;28;20032;-77
2023/10/10 06:32:50;;;;;;;0.10;0.10;;;14.70;99.90;;;;;;5078250;28;20279;-77
2023/10/10 06:37:52;;;;;;;0.10;0.10;;;16.20;99.90;;;;;;5079052;28;20033;-72
2023/10/10 06:40:30;;;;;;;0.17;0.17;;;15.10;99.90;;;;;;5079104;28;20515;-77
2023/10/10 06:42:57;;;;;;;0.20;0.20;;;15.20;99.90;;;;;;5079306;28;20041;-77
2023/10/10 06:45:24;;;;;;;2.85;2.65;;;15.30;99.90;;;;;;5079228;28;20044;-79
2023/10/10 06:47:51;;;;;;;0.15;0.15;;;15.40;99.90;;;;;;5079219;28;20027;-80
2023/10/10 06:50:23;;;;;;;0.85;0.82;;;15.50;99.90;;;;;;5079097;28;20097;-76
2023/10/10 06:52:53;;;;;;;2.10;2.00;;;15.60;99.90;;;;;;5078826;28;20020;-80
2023/10/10 06:55:22;;;;;;;0.13;0.13;;;15.60;99.90;;;;;;5061165;28;20481;-85
2023/10/10 06:57:59;;;;;;;0.20;0.20;;;15.70;99.90;;;;;;5079209;28;20092;-88
2023/10/10 07:00:28;;;;;;;0.20;0.20;;;15.70;99.90;;;;;;5079291;28;20231;-76
2023/10/10 07:02:58;;;;;;;0.10;0.10;;;15.70;99.90;;;;;;5078286;28;20358;-79
2023/10/10 07:05:27;;;;;;;0.85;0.85;;;16.50;99.90;;;;;;5078571;28;20125;-79
2023/10/10 07:08:01;;;;;;;1.27;1.20;;;15.90;99.90;;;;;;5078867;28;20619;-76
2023/10/10 07:10:33;;;;;;;0.20;0.20;;;16.20;99.90;;;;;;5078537;28;20039;-84
2023/10/10 07:13:00;;;;;;;0.10;0.10;;;16.20;99.90;;;;;;5078796;28;20085;-78
2023/10/10 07:15:33;;;;;;;0.10;0.10;;;16.40;99.90;;;;;;5078501;28;20355;-81
2023/10/10 07:18:08;;;;;;;0.10;0.10;;;16.50;99.90;;;;;;5078953;28;20055;-75
2023/10/10 07:23:38;;;;;;;0.10;0.10;;;16.50;99.90;;;;;;5075352;28;20028;-76
2023/10/10 07:26:18;;;;;;;0.28;0.28;;;16.50;99.90;;;;;;5075556;28;20507;-76
2023/10/10 07:28:53;;;;;;;0.32;0.32;;;16.60;99.90;;;;;;5075165;28;20027;-76
2023/10/10 07:31:22;;;;;;;5.40;3.63;;;16.80;99.90;;;;;;5074832;28;20032;-75
2023/10/10 07:33:56;;;;;;;0.30;0.30;;;16.80;99.90;;;;;;5075224;28;20028;-79
2023/10/10 07:36:27;;;;;;;0.17;0.17;;;16.80;99.90;;;;;;5075384;28;20027;-75
2023/10/10 07:38:54;;;;;;;0.10;0.10;;;16.90;99.90;;;;;;5057753;28;20328;-78
2023/10/10 07:41:28;;;;;;;1.73;1.63;;;16.90;99.90;;;;;;5075189;28;20043;-77
2023/10/10 07:43:59;;;;;;;0.10;0.10;;;17.10;99.90;;;;;;5074803;28;20408;-75
2023/10/10 07:46:35;;;;;;;0.20;0.20;;;17.30;99.90;;;;;;5075138;28;20028;-75
2023/10/10 07:49:02;;;;;;;17.73;4.88;;;17.40;99.90;;;;;;5075503;28;20055;-80
2023/10/10 07:51:28;;;;;;;0.20;0.20;;;17.50;99.90;;;;;;5074920;28;20024;-75
2023/10/10 07:54:13;;;;;;;0.63;0.55;;;17.70;99.90;;;;;;5074780;28;20046;-77
2023/10/10 07:56:45;;;;;;;0.30;0.30;;;17.90;99.90;;;;;;5075317;28;20214;-75
2023/10/10 07:59:17;;;;;;;1.20;1.05;;;18.10;99.90;;;;;;5078390;28;20368;-74
2023/10/10 08:01:44;;;;;;;0.40;0.40;;;18.20;99.90;;;;;;5059987;28;20382;-76
2023/10/10 08:04:12;;;;;;;4.40;4.18;;;18.30;99.90;;;;;;5078167;28;20028;-78
2023/10/10 08:06:38;;;;;;;0.63;0.63;;;18.30;99.90;;;;;;5077985;28;20116;-75
2023/10/10 08:11:43;;;;;;;4.18;3.95;;;18.20;99.90;;;;;;5078629;28;20044;-77
2023/10/10 08:14:09;;;;;;;0.10;0.10;;;18.40;99.90;;;;;;5059962;28;20047;-80
2023/10/10 08:16:37;;;;;;;1.15;1.08;;;18.50;99.90;;;;;;5078278;28;20040;-77
2023/10/10 08:19:08;;;;;;;0.20;0.20;;;18.60;99.90;;;;;;5077766;28;20532;-77
2023/10/10 08:21:37;;;;;;;0.52;0.52;;;18.70;99.90;;;;;;5077669;28;20046;-75
2023/10/10 08:24:05;;;;;;;5.13;2.13;;;18.60;99.90;;;;;;5077251;28;20145;-73
2023/10/10 08:26:38;;;;;;;0.30;0.30;;;19.00;99.90;;;;;;5078205;28;20043;-73
2023/10/10 08:29:06;;;;;;;0.40;0.40;;;19.00;99.90;;;;;;5077982;28;20028;-78
2023/10/10 08:31:33;;;;;;;8.15;7.70;;;19.30;99.90;;;;;;5077332;28;20121;-80
2023/10/10 08:33:58;;;;;;;0.10;0.10;;;19.20;99.90;;;;;;5078333;28;20547;-77
2023/10/10 08:36:24;;;;;;;0.20;0.20;;;19.40;99.90;;;;;;5079122;28;20078;-76
2023/10/10 08:38:51;;;;;;;0.32;0.30;;;19.60;99.90;;;;;;5078770;28;20533;-75
2023/10/10 08:41:22;;;;;;;0.10;0.10;;;19.50;99.90;;;;;;5080212;28;20320;-83
2023/10/10 08:43:53;;;;;;;0.85;0.85;;;19.60;99.90;;;;;;5061865;28;20024;-80
2023/10/10 08:46:29;;;;;;;0.10;0.10;;;19.80;99.90;;;;;;5078415;28;20032;-76
2023/10/10 08:48:59;;;;;;;0.25;0.25;;;20.00;99.90;;;;;;5077524;28;20228;-76
2023/10/10 08:51:33;;;;;;;0.70;0.63;;;20.20;99.90;;;;;;5078990;28;20028;-81
2023/10/10 08:54:10;;;;;;;0.10;0.10;;;20.20;99.90;;;;;;5060923;28;20055;-76
2023/10/10 08:57:04;;;;;;;0.25;0.25;;;19.90;99.90;;;;;;5079586;28;20236;-76
2023/10/10 08:59:32;;;;;;;0.10;0.10;;;20.20;99.90;;;;;;5063017;28;20040;-77
2023/10/10 09:02:09;;;;;;;0.10;0.10;;;20.40;99.90;;;;;;5081002;28;20028;-75
2023/10/10 09:04:35;;;;;;;0.90;0.63;;;20.40;99.90;;;;;;5081324;28;20069;-75
2023/10/10 09:07:08;;;;;;;0.08;0.08;;;20.40;99.90;;;;;;5081174;28;20287;-76
2023/10/10 09:09:37;;;;;;;0.10;0.10;;;20.50;99.90;;;;;;5081131;28;20536;-83
2023/10/10 09:12:09;;;;;;;0.10;0.10;;;20.70;99.90;;;;;;5081357;28;20016;-76
2023/10/10 09:14:42;;;;;;;0.52;0.52;;;20.80;99.90;;;;;;5081152;28;20470;-75
2023/10/10 09:17:28;;;;;;;0.30;0.20;;;20.80;99.90;;;;;;5062978;28;20597;-74
2023/10/10 09:19:57;;;;;;;1.75;1.65;;;20.90;99.90;;;;;;5062812;28;20040;-77
2023/10/10 09:22:42;;;;;;;0.50;0.50;;;20.80;99.90;;;;;;5081206;28;20027;-79
2023/10/10 09:25:31;;;;;;;1.27;1.20;;;21.10;99.90;;;;;;5081079;28;20019;-79
2023/10/10 09:28:03;;;;;;;0.20;0.20;;;21.20;99.90;;;;;;5081326;28;20212;-79
2023/10/10 09:30:45;;;;;;;0.57;0.40;;;21.50;99.90;;;;;;5080640;28;20537;-76
2023/10/10 09:33:27;;;;;;;2.42;1.75;;;21.70;99.90;;;;;;5081283;28;20020;-80
2023/10/10 09:36:38;;;;;;;0.63;0.52;;;25.30;99.90;;;;;;5081100;28;20085;-77
2023/10/10 09:39:26;;;;;;;0.20;0.20;;;21.80;99.90;;;;;;5076851;28;20048;-77
2023/10/10 09:42:07;;;;;;;0.35;0.35;;;22.30;99.90;;;;;;5081243;28;20549;-76
2023/10/10 09:45:16;;;;;;;0.10;0.10;;;22.70;99.90;;;;;;5081378;28;20028;-79
2023/10/10 09:47:55;;;;;;;0.43;0.43;;;22.80;99.90;;;;;;5083973;28;20048;-79
2023/10/10 09:52:57;;;;;;;1.10;1.08;;;22.90;99.90;;;;;;5087703;28;20032;-77
2023/10/10 10:00:34;;;;;;;0.17;0.17;;;23.00;99.90;;;;;;5081413;28;20199;-75
2023/10/10 10:03:31;;;;;;;0.10;0.10;;;23.10;99.90;;;;;;5061657;28;20398;-81
2023/10/10 10:09:17;;;;;;;0.32;0.32;;;23.20;99.90;;;;;;5081534;28;20028;-82
2023/10/10 10:12:29;;;;;;;1.13;1.02;;;23.20;99.90;;;;;;5080539;28;20022;-75
2023/10/10 10:15:16;;;;;;;0.30;0.30;;;23.30;99.90;;;;;;5084465;28;20069;-76
2023/10/10 10:18:17;;;;;;;0.80;0.68;;;23.40;99.90;;;;;;5084336;28;20051;-76
2023/10/10 10:23:33;;;;;;;0.25;0.25;;;23.40;99.90;;;;;;5085255;28;20142;-80
2023/10/10 10:26:08;;;;;;;0.20;0.20;;;23.40;99.90;;;;;;5082070;28;20023;-77
2023/10/10 10:28:37;;;;;;;4.55;4.35;;;23.40;99.90;;;;;;5081346;28;20259;-80
2023/10/10 10:31:08;;;;;;;0.20;0.20;;;23.60;99.90;;;;;;5063035;28;20097;-77
2023/10/10 10:33:52;;;;;;;1.92;1.83;;;24.00;99.90;;;;;;5080193;28;20016;-74
2023/10/10 10:36:19;;;;;;;0.50;0.50;;;24.00;99.90;;;;;;5080042;28;20179;-80
2023/10/10 10:39:34;;;;;;;0.10;0.10;;;23.90;99.90;;;;;;5080151;28;20397;-85
2023/10/10 10:41:42;;;;;;;4.10;1.85;;;23.80;99.90;;;;;;5068433;28;20028;-75
2023/10/10 10:44:09;;;;;;;0.35;0.35;;;24.10;99.90;;;;;;5079532;28;20324;-78
2023/10/10 10:46:40;;;;;;;0.17;0.17;;;24.30;99.90;;;;;;5061261;28;20323;-84
2023/10/10 10:49:12;;;;;;;0.10;0.10;;;24.70;99.40;;;;;;5079557;28;20028;-76
2023/10/10 10:51:44;;;;;;;0.30;0.30;;;25.00;99.10;;;;;;5079432;28;20625;-84
2023/10/10 10:57:01;;;;;;;2.53;2.38;;;25.40;97.60;;;;;;5079897;28;20101;-77
2023/10/10 10:59:35;;;;;;;1.48;0.45;;;25.60;97.60;;;;;;5078915;28;20142;-80
2023/10/10 11:02:02;;;;;;;3.28;3.05;;;25.00;96.80;;;;;;5079152;28;20031;-75
2023/10/10 11:04:49;;;;;;;0.03;0.03;;;26.10;97.30;;;;;;5079221;28;20024;-78
2023/10/10 11:07:26;;;;;;;0.55;0.50;;;26.30;96.50;;;;;;5078058;28;20293;-78
2023/10/10 11:10:06;;;;;;;0.38;0.38;;;26.10;96.00;;;;;;5078907;28;20099;-78
2023/10/10 11:12:32;;;;;;;0.47;0.45;;;26.20;95.70;;;;;;5063105;28;20416;-78
2023/10/10 11:15:04;;;;;;;0.55;0.55;;;26.20;95.90;;;;;;5060446;28;20024;-82
2023/10/10 11:17:37;;;;;;;2.53;2.42;;;26.00;95.70;;;;;;5079031;28;20119;-82
2023/10/10 11:20:26;;;;;;;0.10;0.10;;;26.00;95.20;;;;;;5077520;28;20024;-75
2023/10/10 11:23:06;;;;;;;0.75;0.75;;;26.00;94.80;;;;;;5078427;28;20060;-82
2023/10/10 11:25:41;;;;;;;1.50;1.40;;;26.20;94.70;;;;;;5078526;28;20020;-75
2023/10/10 11:28:21;;;;;;;0.10;0.10;;;26.30;94.00;;;;;;5078499;28;20107;-77
2023/10/10 11:30:49;;;;;;;0.10;0.10;;;26.20;92.10;;;;;;5078560;28;20332;-75
2023/10/10 11:33:17;;;;;;;0.10;0.10;;;26.00;92.80;;;;;;5078762;28;20012;-78
2023/10/10 11:35:48;;;;;;;0.38;0.38;;;25.80;92.50;;;;;;5078448;28;20020;-74
2023/10/10 11:38:33;;;;;;;0.10;0.10;;;25.50;92.80;;;;;;5079932;28;20032;-76
2023/10/10 11:41:08;;;;;;;0.10;0.10;;;25.40;93.40;;;;;;5081517;28;20020;-81
2023/10/10 11:43:37;;;;;;;0.10;0.10;;;25.10;93.70;;;;;;5081362;28;20336;-80
2023/10/10 11:46:03;;;;;;;1.10;1.00;;;24.90;94.30;;;;;;5062255;28;20289;-83
2023/10/10 11:48:29;;;;;;;0.08;0.08;;;24.70;94.50;;;;;;5080067;28;20611;-88
2023/10/10 11:50:59;;;;;;;0.03;0.03;;;23.50;94.20;;;;;;5079967;28;20024;-83
2023/10/10 11:53:27;;;;;;;0.10;0.10;;;24.30;94.20;;;;;;5079264;28;20024;-81
2023/10/10 11:56:01;;;;;;;0.10;0.10;;;24.10;94.90;;;;;;5079583;28;20031;-84
2023/10/10 11:58:36;;;;;;;1.23;1.23;;;23.90;94.40;;;;;;5080051;28;20042;-82
2023/10/10 12:01:06;;;;;;;0.15;0.15;;;23.80;95.70;;;;;;5079546;28;20303;-76
2023/10/10 12:03:42;;;;;;;0.10;0.10;;;23.70;95.90;;;;;;5059995;28;20031;-84
2023/10/10 12:06:17;;;;;;;0.70;0.68;;;23.60;97.10;;;;;;5078513;28;20023;-79
2023/10/10 12:08:48;;;;;;;0.25;0.25;;;23.50;97.60;;;;;;5079052;28;20023;-75
2023/10/10 12:11:20;;;;;;;0.65;0.63;;;23.50;97.80;;;;;;5078707;28;20091;-76
2023/10/10 12:13:50;;;;;;;0.10;0.10;;;23.40;98.60;;;;;;5079627;28;20127;-81
2023/10/10 12:16:17;;;;;;;0.25;0.25;;;23.40;98.70;;;;;;5079236;28;20046;-76
2023/10/10 12:18:49;;;;;;;0.10;0.10;;;23.40;98.90;;;;;;5078578;28;20051;-76
2023/10/10 12:21:19;;;;;;;0.40;0.40;;;23.30;99.20;;;;;;5078721;28;20048;-75
2023/10/10 12:23:55;;;;;;;0.10;0.10;;;23.10;99.40;;;;;;5077539;28;20024;-79
2023/10/10 12:26:24;;;;;;;2.85;2.13;;;23.10;98.90;;;;;;5082386;28;20073;-76
2023/10/10 12:28:52;;;;;;;0.13;0.13;;;23.10;99.00;;;;;;5066234;28;20084;-77
2023/10/10 12:31:21;;;;;;;0.10;0.10;;;23.10;98.80;;;;;;5072247;28;20324;-77
2023/10/10 12:33:53;;;;;;;0.35;0.35;;;23.10;98.40;;;;;;5085331;28;20034;-81
2023/10/10 12:36:28;;;;;;;3.20;2.92;;;23.00;98.50;;;;;;5086217;28;20016;-79
2023/10/10 12:38:55;;;;;;;0.17;0.17;;;23.00;98.70;;;;;;5083695;28;20050;-88
2023/10/10 12:41:21;;;;;;;0.25;0.25;;;22.80;99.10;;;;;;5083175;28;20051;-77
2023/10/10 12:43:50;;;;;;;0.20;0.20;;;22.80;98.50;;;;;;5083317;28;20369;-76
2023/10/10 12:46:20;;;;;;;0.20;0.20;;;24.20;99.10;;;;;;5082781;28;20020;-76
2023/10/10 12:48:51;;;;;;;0.20;0.20;;;22.80;98.60;;;;;;5082673;28;20357;-75
2023/10/10 12:51:19;;;;;;;0.80;0.68;;;22.90;99.10;;;;;;5082896;28;20024;-75
2023/10/10 12:53:45;;;;;;;0.95;0.95;;;22.80;99.50;;;;;;5081796;28;20016;-76
2023/10/10 12:56:16;;;;;;;1.80;1.70;;;22.90;99.60;;;;;;5082382;28;20212;-83
2023/10/10 12:58:43;;;;;;;0.30;0.30;;;23.00;99.60;;;;;;5081759;28;20040;-85
2023/10/10 13:01:14;;;;;;;0.10;0.10;;;23.10;99.10;;;;;;5083440;28;20020;-79
2023/10/10 13:03:42;;;;;;;0.10;0.10;;;23.20;99.30;;;;;;5081837;28;20529;-75
2023/10/10 13:06:09;;;;;;;0.20;0.20;;;23.40;98.70;;;;;;5085100;28;20016;-85
2023/10/10 13:08:48;;;;;;;2.95;2.85;;;23.60;98.50;;;;;;5086936;28;20016;-83
2023/10/10 13:11:15;;;;;;;1.13;1.10;;;23.90;97.40;;;;;;5088681;28;20103;-81
2023/10/10 13:13:56;;;;;;;1.30;1.00;;;24.50;97.10;;;;;;5092911;28;20024;-81
2023/10/10 13:16:27;;;;;;;0.50;0.50;;;24.70;96.50;;;;;;5084382;28;20084;-82
2023/10/10 13:18:55;;;;;;;0.55;0.55;;;25.30;95.20;;;;;;5083295;28;20028;-87
2023/10/10 13:21:21;;;;;;;0.08;0.08;;;25.70;95.30;;;;;;5083681;28;20104;-86
2023/10/10 13:23:51;;;;;;;0.10;0.10;;;26.20;94.30;;;;;;5082611;28;20028;-78
2023/10/10 13:26:17;;;;;;;0.10;0.10;;;26.30;94.10;;;;;;5082283;28;20485;-82
2023/10/10 13:28:44;;;;;;;0.10;0.10;;;26.00;93.40;;;;;;5081884;28;20024;-81
2023/10/10 13:31:14;;;;;;;0.00;0.00;;;25.90;93.80;;;;;;5082183;28;20120;-78
2023/10/10 13:33:40;;;;;;;0.10;0.10;;;25.80;93.80;;;;;;5064218;28;20055;-75
2023/10/10 13:36:11;;;;;;;0.10;0.10;;;25.70;94.50;;;;;;5082372;28;20013;-76
2023/10/10 13:38:47;;;;;;;0.55;0.45;;;25.70;93.60;;;;;;5082110;28;20040;-80
2023/10/10 13:41:16;;;;;;;0.88;0.60;;;25.70;94.00;;;;;;5081714;28;20035;-75
2023/10/10 13:43:44;;;;;;;3.58;2.42;;;25.70;94.00;;;;;;5080154;28;20406;-84
2023/10/10 13:46:10;;;;;;;0.15;0.15;;;;;;;;;;5080538;28;20032;-79
2023/10/10 13:48:36;;;;;;;0.52;0.52;;;25.80;93.90;;;;;;5082000;28;20020;-84
2023/10/10 13:51:07;;;;;;;0.20;0.20;;;26.00;94.10;;;;;;5081439;28;20031;-83
2023/10/10 13:53:33;;;;;;;0.10;0.10;;;26.30;94.30;;;;;;5081195;28;20025;-86
2023/10/10 13:56:05;;;;;;;0.55;0.55;;;26.30;93.40;;;;;;5080386;28;20022;-79
2023/10/10 13:58:32;;;;;;;1.48;0.80;;;26.60;93.30;;;;;;5081829;28;20434;-87
2023/10/10 14:03:45;;;;;;;0.70;0.50;;;27.10;93.10;;;;;;5080889;28;20051;-86
2023/10/10 14:06:16;;;;;;;0.20;0.20;;;27.00;93.00;;;;;;5063357;28;20108;-83
2023/10/10 14:08:47;;;;;;;5.60;5.28;;;26.70;92.80;;;;;;5080535;28;20266;-80
2023/10/10 14:11:23;;;;;;;1.42;1.17;;;26.60;93.20;;;;;;5063181;28;20103;-84
2023/10/10 14:13:56;;;;;;;0.10;0.10;;;26.40;93.40;;;;;;5061805;28;20043;-79
2023/10/10 14:16:23;;;;;;;0.80;0.80;;;26.40;93.80;;;;;;5080377;28;20113;-76
2023/10/10 14:18:50;;;;;;;3.50;2.47;;;26.80;93.90;;;;;;5080119;28;20605;-75
2023/10/10 14:21:26;;;;;;;0.20;0.20;;;26.70;93.60;;;;;;5080072;28;20209;-79
2023/10/10 14:23:59;;;;;;;0.80;0.65;;;27.00;93.60;;;;;;5080647;28;20221;-75
2023/10/10 14:26:30;;;;;;;0.55;0.55;;;27.10;93.30;;;;;;5063019;28;20224;-80
2023/10/10 14:28:57;;;;;;;1.88;1.75;;;27.20;92.70;;;;;;5063214;28;20335;-76
2023/10/10 14:31:31;;;;;;;1.23;0.98;;;27.40;92.90;;;;;;5062204;28;20055;-78
2023/10/10 14:34:01;;;;;;;0.90;0.52;;;27.50;92.80;;;;;;5080341;28;20149;-75
2023/10/10 14:36:27;;;;;;;0.15;0.10;;;27.80;92.80;;;;;;5080349;28;20371;-77
2023/10/10 14:38:53;;;;;;;0.00;0.00;;;28.00;91.60;;;;;;5079678;28;20401;-75
2023/10/10 14:41:23;;;;;;;1.38;1.08;;;28.20;91.10;;;;;;5060730;28;20245;-79
2023/10/10 14:43:52;;;;;;;0.10;0.10;;;28.40;90.60;;;;;;5060730;28;20126;-77
2023/10/10 14:46:21;;;;;;;0.38;0.38;;;28.80;90.70;;;;;;5081766;28;20077;-77
2023/10/10 14:49:41;;;;;;;0.10;0.10;;;29.20;90.00;;;;;;5063445;28;20468;-76
2023/10/10 14:51:41;;;;;;;3.47;1.58;;;28.90;90.00;;;;;;5067660;28;20111;-78
2023/10/10 14:54:11;;;;;;;0.15;0.15;;;28.70;90.30;;;;;;5080353;28;20130;-76
2023/10/10 14:56:45;;;;;;;1.85;1.10;;;28.70;90.40;;;;;;5081277;28;20016;-77
2023/10/10 14:59:17;;;;;;;3.80;1.30;;;28.80;90.10;;;;;;5080877;28;20028;-75
2023/10/10 15:01:47;;;;;;;2.47;1.95;;;28.80;90.00;;;;;;5061354;28;20024;-82
2023/10/10 15:04:17;;;;;;;1.55;1.50;;;28.40;90.20;;;;;;5080184;28;20197;-80
2023/10/10 15:06:44;;;;;;;1.38;1.27;;;28.20;90.60;;;;;;5080848;28;20117;-77
2023/10/10 15:09:13;;;;;;;1.70;1.55;;;27.90;90.70;;;;;;5066418;28;20464;-76
2023/10/10 15:11:41;;;;;;;0.15;0.15;;;27.40;90.90;;;;;;5085105;28;20097;-86
2023/10/10 15:14:09;;;;;;;1.40;0.90;;;27.10;91.20;;;;;;5067410;28;20020;-83
2023/10/10 15:16:36;;;;;;;0.20;0.20;;;26.80;91.50;;;;;;5086167;28;20096;-76
2023/10/10 15:19:06;;;;;;;0.63;0.63;;;26.50;91.70;;;;;;5081596;28;20222;-77
2023/10/10 15:21:33;;;;;;;0.88;0.52;;;26.20;92.10;;;;;;5079083;28;20480;-74
2023/10/10 15:23:59;;;;;;;1.85;1.55;;;26.00;92.00;;;;;;5061725;28;20054;-83
2023/10/10 15:26:27;;;;;;;0.63;0.63;;;25.80;92.40;;;;;;5060974;28;20030;-75
2023/10/10 15:28:57;;;;;;;6.13;2.67;;;25.60;93.10;;;;;;5078976;28;20024;-81
2023/10/10 15:31:26;;;;;;;4.72;4.30;;;25.30;94.30;;;;;;5079023;28;20052;-82
2023/10/10 15:33:52;;;;;;;0.45;0.45;;;25.00;95.20;;;;;;5078922;28;20032;-76
2023/10/10 15:36:18;;;;;;;0.17;0.17;;;24.70;95.50;;;;;;5060090;28;20030;-82
2023/10/10 15:38:45;;;;;;;0.50;0.50;;;22.50;95.70;;;;;;5078773;28;20291;-78
2023/10/10 15:41:19;;;;;;;0.47;0.38;;;24.10;96.70;;;;;;5079083;28;20091;-75
2023/10/10 15:43:47;;;;;;;1.35;0.63;;;23.80;97.60;;;;;;5060545;28;20266;-75
2023/10/10 15:46:14;;;;;;;0.10;0.10;;;23.30;98.60;;;;;;5078646;28;20020;-82